sensor_id;sensor_type;location;lat;lon;timestamp;pressure;altitude;pressure_sealevel;temperature;humidity
46412;BME280;32113;42.012;24.870;2022-08-24T00:02:02;98606.19;;;23.83;88.58
46412;BME280;32113;42.012;24.870;2022-08-24T00:04:28;98598.09;;;23.86;87.44
46412;BME280;32113;42.012;24.870;2022-08-24T00:06:54;98598.59;;;23.92;88.57
46412;BME280;32113;42.012;24.870;2022-08-24T00:09:19;98590.84;;;23.90;88.60
46412;BME280;32113;42.012;24.870;2022-08-24T00:11:45;98603.84;;;23.92;88.45
46412;BME280;32113;42.012;24.870;2022-08-24T00:14:12;98588.84;;;23.94;88.09
46412;BME280;32113;42.012;24.870;2022-08-24T00:16:38;98591.56;;;23.92;87.96
46412;BME280;32113;42.012;24.870;2022-08-24T00:19:04;98590.50;;;23.95;88.80
46412;BME280;32113;42.012;24.870;2022-08-24T00:21:29;98594.56;;;23.99;88.75
46412;BME280;32113;42.012;24.870;2022-08-24T00:23:55;98589.00;;;24.04;87.98
46412;BME280;32113;42.012;24.870;2022-08-24T00:26:21;98585.09;;;24.09;88.25
46412;BME280;32113;42.012;24.870;2022-08-24T00:28:46;98590.34;;;24.09;87.24
46412;BME280;32113;42.012;24.870;2022-08-24T00:31:12;98587.81;;;24.08;88.08
46412;BME280;32113;42.012;24.870;2022-08-24T00:33:38;98598.09;;;24.11;87.70
46412;BME280;32113;42.012;24.870;2022-08-24T00:36:05;98593.88;;;24.08;87.67
46412;BME280;32113;42.012;24.870;2022-08-24T00:38:31;98585.84;;;24.11;87.35
46412;BME280;32113;42.012;24.870;2022-08-24T00:40:59;98584.78;;;24.14;86.45
46412;BME280;32113;42.012;24.870;2022-08-24T00:43:25;98602.06;;;24.17;85.86
46412;BME280;32113;42.012;24.870;2022-08-24T00:46:12;98615.25;;;24.15;85.49
46412;BME280;32113;42.012;24.870;2022-08-24T00:48:41;98618.13;;;24.12;86.36
46412;BME280;32113;42.012;24.870;2022-08-24T00:51:23;98616.53;;;24.09;85.99
46412;BME280;32113;42.012;24.870;2022-08-24T00:53:58;98614.72;;;23.98;86.15
46412;BME280;32113;42.012;24.870;2022-08-24T00:56:29;98609.78;;;23.94;86.80
46412;BME280;32113;42.012;24.870;2022-08-24T00:59:00;98623.56;;;23.84;86.79
46412;BME280;32113;42.012;24.870;2022-08-24T01:01:27;98624.00;;;23.78;86.71
46412;BME280;32113;42.012;24.870;2022-08-24T01:03:54;98633.03;;;23.74;87.13
46412;BME280;32113;42.012;24.870;2022-08-24T01:06:21;98629.91;;;23.69;87.53
46412;BME280;32113;42.012;24.870;2022-08-24T01:08:47;98633.09;;;23.48;87.43
46412;BME280;32113;42.012;24.870;2022-08-24T01:11:18;98632.09;;;23.38;88.10
46412;BME280;32113;42.012;24.870;2022-08-24T01:13:46;98631.47;;;23.34;88.82
46412;BME280;32113;42.012;24.870;2022-08-24T01:16:13;98634.50;;;23.41;88.76
46412;BME280;32113;42.012;24.870;2022-08-24T01:18:59;98636.78;;;23.45;88.30
46412;BME280;32113;42.012;24.870;2022-08-24T01:21:37;98632.19;;;23.49;88.36
46412;BME280;32113;42.012;24.870;2022-08-24T01:24:10;98635.22;;;23.43;88.50
46412;BME280;32113;42.012;24.870;2022-08-24T01:26:48;98638.56;;;23.45;88.43
46412;BME280;32113;42.012;24.870;2022-08-24T01:29:19;98633.34;;;23.45;88.67
46412;BME280;32113;42.012;24.870;2022-08-24T01:31:45;98642.75;;;23.47;88.40
46412;BME280;32113;42.012;24.870;2022-08-24T01:34:11;98644.22;;;23.52;88.30
46412;BME280;32113;42.012;24.870;2022-08-24T01:39:09;98638.56;;;23.45;88.62
46412;BME280;32113;42.012;24.870;2022-08-24T01:41:35;98642.00;;;23.45;88.30
46412;BME280;32113;42.012;24.870;2022-08-24T01:44:01;98637.97;;;23.41;88.38
46412;BME280;32113;42.012;24.870;2022-08-24T01:46:27;98638.38;;;23.35;88.81
46412;BME280;32113;42.012;24.870;2022-08-24T01:48:52;98641.94;;;23.34;88.98
46412;BME280;32113;42.012;24.870;2022-08-24T01:51:18;98646.13;;;23.36;89.32
46412;BME280;32113;42.012;24.870;2022-08-24T01:53:45;98647.06;;;23.35;88.88
46412;BME280;32113;42.012;24.870;2022-08-24T01:56:10;98649.97;;;23.31;88.79
46412;BME280;32113;42.012;24.870;2022-08-24T01:58:43;98652.56;;;23.31;88.87
46412;BME280;32113;42.012;24.870;2022-08-24T02:01:08;98655.97;;;23.33;88.78
46412;BME280;32113;42.012;24.870;2022-08-24T02:03:34;98652.56;;;23.31;89.07
46412;BME280;32113;42.012;24.870;2022-08-24T02:05:59;98665.91;;;23.28;87.83
46412;BME280;32113;42.012;24.870;2022-08-24T02:08:25;98656.59;;;23.23;88.48
46412;BME280;32113;42.012;24.870;2022-08-24T02:10:50;98655.53;;;23.26;87.77
46412;BME280;32113;42.012;24.870;2022-08-24T02:13:15;98666.94;;;23.25;87.64
46412;BME280;32113;42.012;24.870;2022-08-24T02:15:41;98659.91;;;23.26;87.10
46412;BME280;32113;42.012;24.870;2022-08-24T02:18:08;98661.72;;;23.25;87.02
46412;BME280;32113;42.012;24.870;2022-08-24T02:20:35;98668.72;;;23.25;86.77
46412;BME280;32113;42.012;24.870;2022-08-24T02:23:01;98663.72;;;23.34;87.10
46412;BME280;32113;42.012;24.870;2022-08-24T02:25:27;98664.94;;;23.29;86.61
46412;BME280;32113;42.012;24.870;2022-08-24T02:27:56;98659.72;;;23.29;86.51
46412;BME280;32113;42.012;24.870;2022-08-24T02:30:22;98664.84;;;23.17;87.06
46412;BME280;32113;42.012;24.870;2022-08-24T02:32:47;98661.31;;;23.18;87.02
46412;BME280;32113;42.012;24.870;2022-08-24T02:35:13;98658.47;;;23.08;87.47
46412;BME280;32113;42.012;24.870;2022-08-24T02:37:38;98664.31;;;23.12;87.52
46412;BME280;32113;42.012;24.870;2022-08-24T02:40:05;98654.09;;;23.09;88.15
46412;BME280;32113;42.012;24.870;2022-08-24T02:42:32;98654.19;;;23.07;88.92
46412;BME280;32113;42.012;24.870;2022-08-24T02:44:59;98656.47;;;22.99;89.68
46412;BME280;32113;42.012;24.870;2022-08-24T02:47:25;98650.72;;;22.94;90.44
46412;BME280;32113;42.012;24.870;2022-08-24T02:49:50;98656.69;;;22.96;90.83
46412;BME280;32113;42.012;24.870;2022-08-24T02:52:15;98656.28;;;23.02;90.68
46412;BME280;32113;42.012;24.870;2022-08-24T02:54:41;98663.28;;;23.02;90.71
46412;BME280;32113;42.012;24.870;2022-08-24T02:57:06;98667.47;;;23.04;90.95
46412;BME280;32113;42.012;24.870;2022-08-24T02:59:32;98683.69;;;23.09;91.09
46412;BME280;32113;42.012;24.870;2022-08-24T03:01:57;98675.44;;;23.16;90.58
46412;BME280;32113;42.012;24.870;2022-08-24T03:04:23;98681.28;;;23.19;91.05
46412;BME280;32113;42.012;24.870;2022-08-24T03:06:48;98685.38;;;23.23;90.39
46412;BME280;32113;42.012;24.870;2022-08-24T03:09:14;98684.00;;;23.18;90.24
46412;BME280;32113;42.012;24.870;2022-08-24T03:11:40;98685.91;;;23.16;90.60
46412;BME280;32113;42.012;24.870;2022-08-24T03:14:06;98694.47;;;23.18;90.99
46412;BME280;32113;42.012;24.870;2022-08-24T03:16:32;98687.47;;;23.18;89.84
46412;BME280;32113;42.012;24.870;2022-08-24T03:18:58;98688.09;;;23.22;89.78
46412;BME280;32113;42.012;24.870;2022-08-24T03:21:24;98689.03;;;23.21;89.52
46412;BME280;32113;42.012;24.870;2022-08-24T03:23:50;98699.50;;;23.21;89.10
46412;BME280;32113;42.012;24.870;2022-08-24T03:26:16;98694.66;;;23.15;89.24
46412;BME280;32113;42.012;24.870;2022-08-24T03:28:42;98692.69;;;23.05;89.17
46412;BME280;32113;42.012;24.870;2022-08-24T03:31:07;98694.56;;;23.03;89.30
46412;BME280;32113;42.012;24.870;2022-08-24T03:33:33;98687.34;;;23.07;89.47
46412;BME280;32113;42.012;24.870;2022-08-24T03:35:59;98683.25;;;23.03;89.45
46412;BME280;32113;42.012;24.870;2022-08-24T03:38:24;98677.50;;;22.97;90.01
46412;BME280;32113;42.012;24.870;2022-08-24T03:40:50;98678.88;;;22.90;90.07
46412;BME280;32113;42.012;24.870;2022-08-24T03:43:16;98669.47;;;22.88;90.03
46412;BME280;32113;42.012;24.870;2022-08-24T03:46:04;98684.41;;;22.86;90.59
46412;BME280;32113;42.012;24.870;2022-08-24T03:48:31;98684.03;;;22.92;90.31
46412;BME280;32113;42.012;24.870;2022-08-24T03:50:56;98691.63;;;22.95;90.44
46412;BME280;32113;42.012;24.870;2022-08-24T03:53:22;98687.78;;;23.01;88.96
46412;BME280;32113;42.012;24.870;2022-08-24T03:55:48;98686.41;;;22.95;88.83
46412;BME280;32113;42.012;24.870;2022-08-24T03:58:13;98683.88;;;22.93;89.25
46412;BME280;32113;42.012;24.870;2022-08-24T04:00:39;98689.88;;;22.95;89.80
46412;BME280;32113;42.012;24.870;2022-08-24T04:03:07;98691.00;;;23.04;89.65
46412;BME280;32113;42.012;24.870;2022-08-24T04:05:32;98690.72;;;23.09;88.61
46412;BME280;32113;42.012;24.870;2022-08-24T04:07:58;98701.28;;;23.07;88.50
46412;BME280;32113;42.012;24.870;2022-08-24T04:10:23;98687.59;;;23.04;89.12
46412;BME280;32113;42.012;24.870;2022-08-24T04:12:49;98689.00;;;23.08;88.94
46412;BME280;32113;42.012;24.870;2022-08-24T04:15:14;98693.09;;;23.12;87.72
46412;BME280;32113;42.012;24.870;2022-08-24T04:17:39;98692.38;;;23.10;87.42
46412;BME280;32113;42.012;24.870;2022-08-24T04:20:05;98694.16;;;23.09;87.62
46412;BME280;32113;42.012;24.870;2022-08-24T04:22:31;98689.66;;;23.12;87.49
46412;BME280;32113;42.012;24.870;2022-08-24T04:24:59;98689.88;;;23.08;87.67
46412;BME280;32113;42.012;24.870;2022-08-24T04:27:24;98687.25;;;23.08;87.82
46412;BME280;32113;42.012;24.870;2022-08-24T04:29:50;98682.63;;;23.12;87.49
46412;BME280;32113;42.012;24.870;2022-08-24T04:32:16;98689.88;;;23.08;88.21
46412;BME280;32113;42.012;24.870;2022-08-24T04:34:42;98694.81;;;23.13;87.86
46412;BME280;32113;42.012;24.870;2022-08-24T04:37:08;98700.41;;;23.20;88.35
46412;BME280;32113;42.012;24.870;2022-08-24T04:39:33;98695.09;;;23.21;87.90
46412;BME280;32113;42.012;24.870;2022-08-24T04:41:59;98704.09;;;23.30;88.09
46412;BME280;32113;42.012;24.870;2022-08-24T04:44:25;98704.75;;;23.34;88.07
46412;BME280;32113;42.012;24.870;2022-08-24T04:46:50;98696.38;;;23.42;87.53
46412;BME280;32113;42.012;24.870;2022-08-24T04:49:15;98699.09;;;23.40;88.02
46412;BME280;32113;42.012;24.870;2022-08-24T04:51:41;98705.06;;;23.42;87.85
46412;BME280;32113;42.012;24.870;2022-08-24T04:54:06;98709.00;;;23.48;88.06
46412;BME280;32113;42.012;24.870;2022-08-24T04:56:33;98707.25;;;23.48;87.87
46412;BME280;32113;42.012;24.870;2022-08-24T04:58:58;98706.00;;;23.54;87.39
46412;BME280;32113;42.012;24.870;2022-08-24T05:01:26;98710.16;;;23.57;87.22
46412;BME280;32113;42.012;24.870;2022-08-24T05:03:53;98714.56;;;23.56;87.03
46412;BME280;32113;42.012;24.870;2022-08-24T05:06:22;98711.94;;;23.56;85.99
46412;BME280;32113;42.012;24.870;2022-08-24T05:08:48;98719.06;;;23.54;85.39
46412;BME280;32113;42.012;24.870;2022-08-24T05:11:15;98722.84;;;23.50;85.36
46412;BME280;32113;42.012;24.870;2022-08-24T05:13:42;98723.06;;;23.47;86.44
46412;BME280;32113;42.012;24.870;2022-08-24T05:16:10;98718.56;;;23.36;84.95
46412;BME280;32113;42.012;24.870;2022-08-24T05:18:37;98714.56;;;23.30;85.94
46412;BME280;32113;42.012;24.870;2022-08-24T05:21:07;98715.38;;;23.31;86.93
46412;BME280;32113;42.012;24.870;2022-08-24T05:23:34;98718.94;;;23.30;87.73
46412;BME280;32113;42.012;24.870;2022-08-24T05:26:14;98719.41;;;23.36;86.48
46412;BME280;32113;42.012;24.870;2022-08-24T05:28:40;98717.63;;;23.37;86.62
46412;BME280;32113;42.012;24.870;2022-08-24T05:31:15;98726.94;;;23.41;86.92
46412;BME280;32113;42.012;24.870;2022-08-24T05:33:41;98720.03;;;23.40;87.57
46412;BME280;32113;42.012;24.870;2022-08-24T05:38:40;98726.81;;;23.30;88.39
46412;BME280;32113;42.012;24.870;2022-08-24T05:41:06;98723.78;;;23.23;88.90
46412;BME280;32113;42.012;24.870;2022-08-24T05:43:31;98724.19;;;23.30;89.57
46412;BME280;32113;42.012;24.870;2022-08-24T05:45:57;98720.94;;;23.26;89.32
46412;BME280;32113;42.012;24.870;2022-08-24T05:48:22;98717.59;;;23.24;89.03
46412;BME280;32113;42.012;24.870;2022-08-24T05:50:53;98727.88;;;23.14;89.75
46412;BME280;32113;42.012;24.870;2022-08-24T05:53:18;98728.59;;;23.03;91.16
46412;BME280;32113;42.012;24.870;2022-08-24T05:55:44;98718.22;;;23.15;90.82
46412;BME280;32113;42.012;24.870;2022-08-24T05:58:09;98715.41;;;23.18;90.55
46412;BME280;32113;42.012;24.870;2022-08-24T06:00:36;98708.50;;;23.30;90.70
46412;BME280;32113;42.012;24.870;2022-08-24T06:03:01;98708.94;;;23.36;89.72
46412;BME280;32113;42.012;24.870;2022-08-24T06:05:27;98708.22;;;23.34;89.48
46412;BME280;32113;42.012;24.870;2022-08-24T06:07:52;98712.50;;;23.35;90.03
46412;BME280;32113;42.012;24.870;2022-08-24T06:10:18;98710.41;;;23.41;90.37
46412;BME280;32113;42.012;24.870;2022-08-24T06:12:44;98704.13;;;23.43;90.42
46412;BME280;32113;42.012;24.870;2022-08-24T06:15:10;98707.78;;;23.41;89.92
46412;BME280;32113;42.012;24.870;2022-08-24T06:17:36;98707.03;;;23.26;90.15
46412;BME280;32113;42.012;24.870;2022-08-24T06:20:02;98711.97;;;23.30;90.50
46412;BME280;32113;42.012;24.870;2022-08-24T06:22:28;98717.75;;;23.35;90.31
46412;BME280;32113;42.012;24.870;2022-08-24T06:24:53;98719.28;;;23.51;89.63
46412;BME280;32113;42.012;24.870;2022-08-24T06:27:37;98714.75;;;23.66;89.61
46412;BME280;32113;42.012;24.870;2022-08-24T06:30:06;98722.47;;;23.81;89.16
46412;BME280;32113;42.012;24.870;2022-08-24T06:32:35;98717.44;;;23.91;87.67
46412;BME280;32113;42.012;24.870;2022-08-24T06:35:01;98717.28;;;23.92;87.83
46412;BME280;32113;42.012;24.870;2022-08-24T06:37:27;98713.91;;;24.03;88.04
46412;BME280;32113;42.012;24.870;2022-08-24T06:39:53;98719.88;;;24.18;87.49
46412;BME280;32113;42.012;24.870;2022-08-24T06:42:19;98711.56;;;24.24;86.47
46412;BME280;32113;42.012;24.870;2022-08-24T06:44:45;98712.53;;;24.35;87.39
46412;BME280;32113;42.012;24.870;2022-08-24T06:47:10;98709.25;;;24.44;86.18
46412;BME280;32113;42.012;24.870;2022-08-24T06:49:36;98716.09;;;24.58;86.25
46412;BME280;32113;42.012;24.870;2022-08-24T06:52:03;98711.25;;;24.65;84.74
46412;BME280;32113;42.012;24.870;2022-08-24T06:54:29;98712.81;;;24.67;83.67
46412;BME280;32113;42.012;24.870;2022-08-24T06:56:54;98709.72;;;24.74;83.54
46412;BME280;32113;42.012;24.870;2022-08-24T06:59:20;98708.72;;;24.88;83.53
46412;BME280;32113;42.012;24.870;2022-08-24T07:01:46;98712.56;;;25.06;82.69
46412;BME280;32113;42.012;24.870;2022-08-24T07:04:11;98712.56;;;25.18;80.67
46412;BME280;32113;42.012;24.870;2022-08-24T07:06:37;98705.19;;;25.35;79.83
46412;BME280;32113;42.012;24.870;2022-08-24T07:09:04;98707.19;;;25.54;79.69
46412;BME280;32113;42.012;24.870;2022-08-24T07:11:29;98709.59;;;25.68;79.14
46412;BME280;32113;42.012;24.870;2022-08-24T07:13:56;98711.50;;;25.89;78.62
46412;BME280;32113;42.012;24.870;2022-08-24T07:16:22;98710.75;;;25.98;78.38
46412;BME280;32113;42.012;24.870;2022-08-24T07:18:47;98705.91;;;26.15;77.96
46412;BME280;32113;42.012;24.870;2022-08-24T07:21:13;98713.44;;;26.20;76.90
46412;BME280;32113;42.012;24.870;2022-08-24T07:23:38;98718.78;;;26.30;73.30
46412;BME280;32113;42.012;24.870;2022-08-24T07:26:09;98705.75;;;26.40;74.31
46412;BME280;32113;42.012;24.870;2022-08-24T07:28:38;98709.69;;;26.45;74.93
46412;BME280;32113;42.012;24.870;2022-08-24T07:31:05;98700.53;;;26.49;75.72
46412;BME280;32113;42.012;24.870;2022-08-24T07:33:31;98708.75;;;26.56;75.01
46412;BME280;32113;42.012;24.870;2022-08-24T07:35:59;98704.22;;;26.58;72.48
46412;BME280;32113;42.012;24.870;2022-08-24T07:38:24;98712.63;;;26.52;74.00
46412;BME280;32113;42.012;24.870;2022-08-24T07:40:50;98712.75;;;26.50;73.25
46412;BME280;32113;42.012;24.870;2022-08-24T07:43:16;98722.94;;;26.44;74.52
46412;BME280;32113;42.012;24.870;2022-08-24T07:45:42;98716.72;;;26.45;73.78
46412;BME280;32113;42.012;24.870;2022-08-24T07:48:08;98718.78;;;26.41;74.55
46412;BME280;32113;42.012;24.870;2022-08-24T07:50:33;98725.19;;;26.48;74.13
46412;BME280;32113;42.012;24.870;2022-08-24T07:52:59;98722.81;;;26.45;74.20
46412;BME280;32113;42.012;24.870;2022-08-24T07:55:25;98723.75;;;26.44;74.12
46412;BME280;32113;42.012;24.870;2022-08-24T07:57:50;98718.91;;;26.40;74.61
46412;BME280;32113;42.012;24.870;2022-08-24T08:00:17;98720.47;;;26.31;75.13
46412;BME280;32113;42.012;24.870;2022-08-24T08:02:43;98724.91;;;26.30;74.63
46412;BME280;32113;42.012;24.870;2022-08-24T08:05:12;98724.31;;;26.27;75.09
46412;BME280;32113;42.012;24.870;2022-08-24T08:07:38;98730.53;;;26.26;75.57
46412;BME280;32113;42.012;24.870;2022-08-24T08:10:04;98731.38;;;26.26;75.21
46412;BME280;32113;42.012;24.870;2022-08-24T08:12:30;98730.53;;;26.26;73.39
46412;BME280;32113;42.012;24.870;2022-08-24T08:14:55;98731.13;;;26.18;73.15
46412;BME280;32113;42.012;24.870;2022-08-24T08:17:22;98730.31;;;26.17;74.15
46412;BME280;32113;42.012;24.870;2022-08-24T08:19:47;98738.75;;;26.21;75.31
46412;BME280;32113;42.012;24.870;2022-08-24T08:22:13;98740.66;;;26.19;77.39
46412;BME280;32113;42.012;24.870;2022-08-24T08:24:57;98741.50;;;26.19;79.15
46412;BME280;32113;42.012;24.870;2022-08-24T08:27:23;98742.25;;;26.21;76.52
46412;BME280;32113;42.012;24.870;2022-08-24T08:29:49;98748.19;;;26.23;76.82
46412;BME280;32113;42.012;24.870;2022-08-24T08:32:15;98742.22;;;26.33;77.96
46412;BME280;32113;42.012;24.870;2022-08-24T08:34:43;98733.19;;;26.47;77.11
46412;BME280;32113;42.012;24.870;2022-08-24T08:37:09;98734.81;;;26.59;75.47
46412;BME280;32113;42.012;24.870;2022-08-24T08:39:35;98728.72;;;26.80;75.63
46412;BME280;32113;42.012;24.870;2022-08-24T08:45:03;98728.91;;;27.31;70.68
46412;BME280;32113;42.012;24.870;2022-08-24T08:53:54;98722.19;;;27.79;69.38
46412;BME280;32113;42.012;24.870;2022-08-24T08:56:34;98724.97;;;27.88;68.41
46412;BME280;32113;42.012;24.870;2022-08-24T09:10:16;98717.16;;;29.24;63.73
46412;BME280;32113;42.012;24.870;2022-08-24T09:16:00;98718.63;;;29.75;58.92
46412;BME280;32113;42.012;24.870;2022-08-24T09:21:56;98717.78;;;30.21;59.61
46412;BME280;32113;42.012;24.870;2022-08-24T09:27:09;98707.56;;;30.62;56.90
46412;BME280;32113;42.012;24.870;2022-08-24T09:29:54;98702.06;;;30.74;55.11
46412;BME280;32113;42.012;24.870;2022-08-24T09:32:35;98686.91;;;30.84;55.12
46412;BME280;32113;42.012;24.870;2022-08-24T09:40:54;98677.25;;;31.36;52.92
46412;BME280;32113;42.012;24.870;2022-08-24T09:57:36;98654.22;;;32.13;44.40
46412;BME280;32113;42.012;24.870;2022-08-24T10:00:24;98655.53;;;32.01;44.16
46412;BME280;32113;42.012;24.870;2022-08-24T10:03:13;98646.94;;;31.98;43.24
46412;BME280;32113;42.012;24.870;2022-08-24T10:05:51;98641.47;;;32.08;43.63
46412;BME280;32113;42.012;24.870;2022-08-24T10:14:15;98644.28;;;32.40;42.56
46412;BME280;32113;42.012;24.870;2022-08-24T10:20:03;98647.94;;;32.39;41.24
46412;BME280;32113;42.012;24.870;2022-08-24T10:33:17;98645.69;;;31.68;45.14
46412;BME280;32113;42.012;24.870;2022-08-24T10:45:03;98633.25;;;31.60;43.38
46412;BME280;32113;42.012;24.870;2022-08-24T10:47:34;98630.78;;;31.67;45.75
46412;BME280;32113;42.012;24.870;2022-08-24T10:53:08;98623.53;;;31.85;45.19
46412;BME280;32113;42.012;24.870;2022-08-24T10:55:37;98609.97;;;32.05;43.95
46412;BME280;32113;42.012;24.870;2022-08-24T10:58:18;98614.44;;;32.21;42.09
46412;BME280;32113;42.012;24.870;2022-08-24T11:00:47;98622.22;;;32.23;42.41
46412;BME280;32113;42.012;24.870;2022-08-24T11:03:18;98625.50;;;31.75;40.96
46412;BME280;32113;42.012;24.870;2022-08-24T11:05:50;98622.31;;;31.55;44.66
46412;BME280;32113;42.012;24.870;2022-08-24T11:08:24;98613.84;;;31.43;44.97
46412;BME280;32113;42.012;24.870;2022-08-24T11:11:13;98601.41;;;31.35;43.54
46412;BME280;32113;42.012;24.870;2022-08-24T11:14:08;98608.09;;;31.21;42.39
46412;BME280;32113;42.012;24.870;2022-08-24T11:16:37;98607.47;;;30.92;44.11
46412;BME280;32113;42.012;24.870;2022-08-24T11:19:10;98598.22;;;30.88;43.80
46412;BME280;32113;42.012;24.870;2022-08-24T11:24:10;98599.81;;;31.16;45.36
46412;BME280;32113;42.012;24.870;2022-08-24T11:27:17;98598.41;;;31.38;43.76
46412;BME280;32113;42.012;24.870;2022-08-24T11:33:33;98590.84;;;31.85;45.57
46412;BME280;32113;42.012;24.870;2022-08-24T11:40:56;98595.81;;;31.80;43.06
46412;BME280;32113;42.012;24.870;2022-08-24T11:46:50;98596.25;;;31.42;42.90
46412;BME280;32113;42.012;24.870;2022-08-24T11:49:54;98600.31;;;31.19;42.82
46412;BME280;32113;42.012;24.870;2022-08-24T12:00:15;98586.69;;;31.57;43.29
46412;BME280;32113;42.012;24.870;2022-08-24T12:03:06;98580.91;;;31.79;43.60
46412;BME280;32113;42.012;24.870;2022-08-24T12:19:19;98580.91;;;32.29;41.77
46412;BME280;32113;42.012;24.870;2022-08-24T12:21:49;98590.84;;;31.85;42.59
46412;BME280;32113;42.012;24.870;2022-08-24T12:27:16;98595.13;;;31.53;44.06
46412;BME280;32113;42.012;24.870;2022-08-24T12:29:43;98584.69;;;31.59;43.28
46412;BME280;32113;42.012;24.870;2022-08-24T12:34:59;98572.97;;;31.95;42.97
46412;BME280;32113;42.012;24.870;2022-08-24T12:43:29;98568.94;;;32.41;41.52
46412;BME280;32113;42.012;24.870;2022-08-24T12:45:35;98561.00;;;32.58;41.09
46412;BME280;32113;42.012;24.870;2022-08-24T13:01:30;98544.69;;;32.61;43.36
46412;BME280;32113;42.012;24.870;2022-08-24T13:04:04;98543.19;;;32.67;42.71
46412;BME280;32113;42.012;24.870;2022-08-24T13:06:53;98532.84;;;32.80;41.42
46412;BME280;32113;42.012;24.870;2022-08-24T13:09:30;98537.03;;;32.66;40.73
46412;BME280;32113;42.012;24.870;2022-08-24T13:11:58;98536.56;;;32.62;41.52
46412;BME280;32113;42.012;24.870;2022-08-24T13:14:27;98543.03;;;32.60;42.77
46412;BME280;32113;42.012;24.870;2022-08-24T13:21:50;98531.00;;;32.32;45.78
46412;BME280;32113;42.012;24.870;2022-08-24T13:26:55;98525.66;;;32.49;43.39
46412;BME280;32113;42.012;24.870;2022-08-24T13:29:20;98521.19;;;32.49;44.02
46412;BME280;32113;42.012;24.870;2022-08-24T13:31:52;98515.56;;;32.44;42.31
46412;BME280;32113;42.012;24.870;2022-08-24T13:45:50;98530.41;;;32.70;41.98
46412;BME280;32113;42.012;24.870;2022-08-24T13:48:28;98516.91;;;32.80;42.08
46412;BME280;32113;42.012;24.870;2022-08-24T13:54:02;98513.06;;;32.51;42.87
46412;BME280;32113;42.012;24.870;2022-08-24T13:56:54;98511.03;;;32.53;42.68
46412;BME280;32113;42.012;24.870;2022-08-24T14:05:08;98521.53;;;32.46;44.51
46412;BME280;32113;42.012;24.870;2022-08-24T14:07:53;98521.19;;;32.49;45.92
46412;BME280;32113;42.012;24.870;2022-08-24T14:13:17;98508.91;;;32.48;44.01
46412;BME280;32113;42.012;24.870;2022-08-24T14:21:21;98491.56;;;32.69;46.01
46412;BME280;32113;42.012;24.870;2022-08-24T14:34:20;98494.22;;;32.69;43.10
46412;BME280;32113;42.012;24.870;2022-08-24T14:36:56;98488.16;;;32.52;42.86
46412;BME280;32113;42.012;24.870;2022-08-24T14:42:35;98493.00;;;32.32;43.89
46412;BME280;32113;42.012;24.870;2022-08-24T14:50:18;98496.25;;;31.94;45.67
46412;BME280;32113;42.012;24.870;2022-08-24T14:53:12;98496.91;;;31.88;47.11
46412;BME280;32113;42.012;24.870;2022-08-24T14:56:13;98490.41;;;31.82;45.99
46412;BME280;32113;42.012;24.870;2022-08-24T14:59:34;98486.31;;;31.71;46.02
46412;BME280;32113;42.012;24.870;2022-08-24T15:05:02;98480.94;;;31.21;47.10
46412;BME280;32113;42.012;24.870;2022-08-24T15:07:35;98479.94;;;31.05;48.04
46412;BME280;32113;42.012;24.870;2022-08-24T15:10:03;98470.50;;;31.03;48.63
46412;BME280;32113;42.012;24.870;2022-08-24T15:12:50;98471.13;;;30.97;48.32
46412;BME280;32113;42.012;24.870;2022-08-24T15:20:52;98495.28;;;30.93;49.72
46412;BME280;32113;42.012;24.870;2022-08-24T15:28:47;98506.66;;;30.77;50.58
46412;BME280;32113;42.012;24.870;2022-08-24T15:31:19;98506.81;;;30.76;50.30
46412;BME280;32113;42.012;24.870;2022-08-24T15:33:56;98505.97;;;30.75;49.70
46412;BME280;32113;42.012;24.870;2022-08-24T15:36:22;98505.75;;;30.68;50.66
46412;BME280;32113;42.012;24.870;2022-08-24T15:38:48;98508.72;;;30.65;50.07
46412;BME280;32113;42.012;24.870;2022-08-24T15:41:26;98509.88;;;30.63;50.52
46412;BME280;32113;42.012;24.870;2022-08-24T15:44:21;98507.38;;;30.61;50.92
46412;BME280;32113;42.012;24.870;2022-08-24T15:46:53;98506.88;;;30.58;51.57
46412;BME280;32113;42.012;24.870;2022-08-24T15:49:27;98510.69;;;30.63;52.18
46412;BME280;32113;42.012;24.870;2022-08-24T15:51:58;98512.47;;;30.54;51.06
46412;BME280;32113;42.012;24.870;2022-08-24T15:56:58;98532.53;;;30.31;50.87
46412;BME280;32113;42.012;24.870;2022-08-24T15:59:43;98539.97;;;30.27;52.10
46412;BME280;32113;42.012;24.870;2022-08-24T16:04:58;98541.03;;;30.16;52.68
46412;BME280;32113;42.012;24.870;2022-08-24T16:07:30;98544.13;;;30.11;52.58
46412;BME280;32113;42.012;24.870;2022-08-24T16:10:08;98543.09;;;30.04;54.12
46412;BME280;32113;42.012;24.870;2022-08-24T16:12:35;98539.16;;;30.08;54.54
46412;BME280;32113;42.012;24.870;2022-08-24T16:15:19;98543.88;;;30.05;54.15
46412;BME280;32113;42.012;24.870;2022-08-24T16:17:45;98549.34;;;30.03;53.04
46412;BME280;32113;42.012;24.870;2022-08-24T16:20:30;98558.03;;;29.95;53.79
46412;BME280;32113;42.012;24.870;2022-08-24T16:23:05;98560.63;;;29.87;54.03
46412;BME280;32113;42.012;24.870;2022-08-24T16:25:40;98565.38;;;29.83;54.48
46412;BME280;32113;42.012;24.870;2022-08-24T16:30:51;98575.81;;;29.85;54.18
46412;BME280;32113;42.012;24.870;2022-08-24T16:33:39;98572.56;;;29.73;53.69
46412;BME280;32113;42.012;24.870;2022-08-24T16:36:08;98573.19;;;29.67;54.05
46412;BME280;32113;42.012;24.870;2022-08-24T16:38:35;98563.88;;;29.62;54.53
46412;BME280;32113;42.012;24.870;2022-08-24T16:41:08;98567.50;;;29.61;54.07
46412;BME280;32113;42.012;24.870;2022-08-24T16:43:35;98570.00;;;29.63;56.46
46412;BME280;32113;42.012;24.870;2022-08-24T16:46:01;98575.44;;;29.61;55.08
46412;BME280;32113;42.012;24.870;2022-08-24T16:48:27;98577.09;;;29.62;55.06